createdAt,value
2023-12-09T00:02:12.938Z,-6.30
2023-12-09T00:04:43.989Z,-6.30
2023-12-09T00:07:12.418Z,-6.30
2023-12-09T00:09:40.324Z,-6.30
2023-12-09T00:12:08.061Z,-6.30
2023-12-09T00:14:36.853Z,-5.90
2023-12-09T00:17:05.475Z,-6.40
2023-12-09T00:19:34.202Z,-6.40
2023-12-09T00:22:02.747Z,-6.40
2023-12-09T00:24:31.571Z,-6.30
2023-12-09T00:27:05.957Z,-6.30
2023-12-09T00:29:34.423Z,-6.30
2023-12-09T00:32:01.967Z,-6.30
2023-12-09T00:34:30.698Z,-6.30
2023-12-09T00:37:02.131Z,-6.30
2023-12-09T00:39:31.794Z,-6.20
2023-12-09T00:41:59.421Z,-6.20
2023-12-09T00:44:29.038Z,-6.20
2023-12-09T00:46:58.402Z,-6.20
2023-12-09T00:49:27.577Z,-6.20
2023-12-09T00:51:55.926Z,-5.50
2023-12-09T00:54:24.418Z,-6.20
2023-12-09T00:56:52.764Z,-6.20
2023-12-09T00:59:21.216Z,-6.30
2023-12-09T01:01:51.925Z,-6.20
2023-12-09T01:04:22.757Z,-6.20
2023-12-09T01:06:51.476Z,-6.20
2023-12-09T01:09:21.209Z,-6.30
2023-12-09T01:11:57.034Z,-6.20
2023-12-09T01:14:30.467Z,-6.40
2023-12-09T01:16:59.320Z,-6.40
2023-12-09T01:19:28.913Z,-6.50
2023-12-09T01:21:58.691Z,-6.50
2023-12-09T01:24:26.115Z,-6.60
2023-12-09T01:26:53.589Z,-6.70
2023-12-09T01:29:22.838Z,-6.70
2023-12-09T01:31:50.323Z,-6.70
2023-12-09T01:34:17.840Z,-6.70
2023-12-09T01:36:47.631Z,-6.80
2023-12-09T01:39:16.411Z,-6.70
2023-12-09T01:41:45.451Z,-6.80
2023-12-09T01:44:15.946Z,-6.90
2023-12-09T01:46:47.818Z,-6.90
2023-12-09T01:49:17.468Z,-6.90
2023-12-09T01:51:47.138Z,-7.00
2023-12-09T01:54:16.740Z,-6.90
2023-12-09T01:56:47.759Z,-6.90
2023-12-09T01:59:18.071Z,-6.90
2023-12-09T02:01:52.851Z,-7.00
2023-12-09T02:04:21.872Z,-6.90
2023-12-09T02:06:50.241Z,-6.90
2023-12-09T02:09:20.565Z,-6.90
2023-12-09T02:12:02.429Z,-6.90
2023-12-09T02:14:58.385Z,-6.90
2023-12-09T02:17:42.312Z,-6.90
2023-12-09T02:20:15.701Z,-7.10
2023-12-09T02:22:45.956Z,-7.10
2023-12-09T02:25:14.380Z,-7.00
2023-12-09T02:27:56.814Z,-7.00
2023-12-09T02:30:35.505Z,-7.00
2023-12-09T02:33:08.057Z,-6.90
2023-12-09T02:35:40.326Z,-7.00
2023-12-09T02:38:11.361Z,-7.00
2023-12-09T02:40:41.020Z,-7.00
2023-12-09T02:43:10.276Z,-7.00
2023-12-09T02:45:39.277Z,-7.00
2023-12-09T02:48:08.210Z,-7.00
2023-12-09T02:50:37.450Z,-7.00
2023-12-09T02:53:07.247Z,-7.10
2023-12-09T02:55:34.627Z,-7.10
2023-12-09T02:58:04.248Z,-7.10
2023-12-09T03:00:31.722Z,-7.10
2023-12-09T03:03:00.198Z,-8.30
2023-12-09T03:05:28.121Z,-7.10
2023-12-09T03:07:55.584Z,-7.00
2023-12-09T03:10:26.526Z,-7.10
2023-12-09T03:12:54.792Z,-7.10
2023-12-09T03:15:23.375Z,-7.10
2023-12-09T03:17:54.279Z,-7.10
2023-12-09T03:20:26.261Z,-7.10
2023-12-09T03:22:54.546Z,-7.10
2023-12-09T03:25:24.115Z,-7.10
2023-12-09T03:27:52.580Z,-7.00
2023-12-09T03:30:20.168Z,-7.00
2023-12-09T03:32:48.965Z,-7.00
2023-12-09T03:35:17.381Z,-7.10
2023-12-09T03:37:48.669Z,-7.10
2023-12-09T03:40:16.348Z,-7.60
2023-12-09T03:42:44.818Z,-7.10
2023-12-09T03:45:12.628Z,-6.40
2023-12-09T03:47:41.943Z,-7.10
2023-12-09T03:50:09.909Z,-7.10
2023-12-09T03:52:39.616Z,-7.20
2023-12-09T03:55:11.926Z,-7.20
2023-12-09T03:57:39.836Z,-7.20
2023-12-09T04:00:12.189Z,-7.20
2023-12-09T04:02:40.831Z,-7.20
2023-12-09T04:05:08.625Z,-6.90
2023-12-09T04:07:37.618Z,-7.20
2023-12-09T04:10:06.589Z,-7.20
2023-12-09T04:12:34.217Z,-7.20
2023-12-09T04:15:03.651Z,-7.20
2023-12-09T04:17:33.312Z,-7.20
2023-12-09T04:20:02.124Z,-7.20
2023-12-09T04:22:30.778Z,-7.20
2023-12-09T04:25:00.310Z,-7.50
2023-12-09T04:27:28.682Z,-7.20
2023-12-09T04:29:56.301Z,-7.20
2023-12-09T04:32:25.007Z,-7.20
2023-12-09T04:34:53.511Z,-7.20
2023-12-09T04:37:20.949Z,-7.30
2023-12-09T04:39:50.221Z,-7.30
2023-12-09T04:42:19.676Z,-7.30
2023-12-09T04:44:48.430Z,-7.30
2023-12-09T04:47:16.908Z,-7.30
2023-12-09T04:49:44.454Z,-7.30
2023-12-09T04:52:13.212Z,-7.30
2023-12-09T04:54:41.833Z,-7.30
2023-12-09T04:57:20.332Z,-7.20
2023-12-09T04:59:50.256Z,-7.30
2023-12-09T05:02:18.765Z,-7.30
2023-12-09T05:04:48.352Z,-7.20
2023-12-09T05:07:16.038Z,-7.20
2023-12-09T05:09:44.855Z,-7.10
2023-12-09T05:12:13.523Z,-7.00
2023-12-09T05:14:43.283Z,-7.30
2023-12-09T05:17:12.994Z,-7.00
2023-12-09T05:19:42.506Z,-7.00
2023-12-09T05:22:10.842Z,-7.00
2023-12-09T05:24:40.341Z,-7.10
2023-12-09T05:27:07.739Z,-7.10
2023-12-09T05:29:39.710Z,-7.10
2023-12-09T05:32:10.207Z,-7.10
2023-12-09T05:34:38.735Z,-7.10
2023-12-09T05:37:08.465Z,-7.10
2023-12-09T05:39:36.975Z,-7.10
2023-12-09T05:42:10.925Z,-7.30
2023-12-09T05:44:38.290Z,-7.00
2023-12-09T05:47:08.180Z,-6.90
2023-12-09T05:49:36.513Z,-5.40
2023-12-09T05:52:04.274Z,-7.00
2023-12-09T05:54:34.347Z,-7.00
2023-12-09T05:57:02.856Z,-7.00
2023-12-09T05:59:31.392Z,-7.00
2023-12-09T06:01:58.957Z,-7.00
2023-12-09T06:04:27.683Z,-7.00
2023-12-09T06:06:55.811Z,-7.00
2023-12-09T06:09:24.190Z,-7.00
2023-12-09T06:11:52.609Z,-7.00
2023-12-09T06:14:20.117Z,-5.70
2023-12-09T06:16:48.061Z,-6.90
2023-12-09T06:19:16.509Z,-7.60
2023-12-09T06:21:46.262Z,-7.00
2023-12-09T06:24:19.105Z,-7.00
2023-12-09T06:26:48.744Z,-6.90
2023-12-09T06:29:17.462Z,-6.90
2023-12-09T06:31:49.171Z,-6.90
2023-12-09T06:34:19.681Z,-6.80
2023-12-09T06:36:50.297Z,-6.90
2023-12-09T06:39:22.507Z,-6.90
2023-12-09T06:41:52.139Z,-6.90
2023-12-09T06:44:21.747Z,-6.90
2023-12-09T06:46:50.159Z,-6.90
2023-12-09T06:49:21.818Z,-6.90
2023-12-09T06:51:51.970Z,-7.00
2023-12-09T06:54:19.908Z,-7.00
2023-12-09T06:56:47.406Z,-7.00
2023-12-09T06:59:15.351Z,-6.90
2023-12-09T07:01:45.240Z,-6.90
2023-12-09T07:04:14.035Z,-6.90
2023-12-09T07:06:43.372Z,-4.80
2023-12-09T07:09:11.882Z,-6.90
2023-12-09T07:11:42.771Z,-6.80
2023-12-09T07:14:11.753Z,-6.90
2023-12-09T07:16:42.852Z,-6.80
2023-12-09T07:19:11.301Z,-6.90
2023-12-09T07:21:38.784Z,-6.90
2023-12-09T07:24:09.426Z,-6.90
2023-12-09T07:26:38.287Z,-6.90
2023-12-09T07:29:11.008Z,-7.00
2023-12-09T07:31:40.796Z,-6.90
2023-12-09T07:34:15.369Z,-6.90
2023-12-09T07:36:46.873Z,-6.90
2023-12-09T07:39:16.552Z,-6.80
2023-12-09T07:41:46.325Z,-6.80
2023-12-09T07:44:13.923Z,-6.90
2023-12-09T07:46:43.236Z,-6.90
2023-12-09T07:49:12.784Z,-6.90
2023-12-09T07:51:42.047Z,-6.80
2023-12-09T07:54:11.255Z,-6.80
2023-12-09T07:56:38.951Z,-6.80
2023-12-09T07:59:10.672Z,-6.80
2023-12-09T08:01:41.044Z,-6.80
2023-12-09T08:04:10.964Z,-6.80
2023-12-09T08:06:40.274Z,-6.90
2023-12-09T08:09:11.626Z,-6.90
2023-12-09T08:11:40.426Z,-6.80
2023-12-09T08:14:11.053Z,-6.80
2023-12-09T08:16:39.671Z,-6.80
2023-12-09T08:19:08.535Z,-6.70
2023-12-09T08:21:38.312Z,-6.70
2023-12-09T08:24:08.194Z,-6.70
2023-12-09T08:26:39.310Z,-6.70
2023-12-09T08:29:06.914Z,-6.70
2023-12-09T08:31:35.520Z,-6.80
2023-12-09T08:34:04.179Z,-6.80
2023-12-09T08:36:32.037Z,-6.80
2023-12-09T08:39:00.732Z,-6.70
2023-12-09T08:41:32.481Z,-6.60
2023-12-09T08:44:00.914Z,-6.60
2023-12-09T08:46:29.731Z,-6.60
2023-12-09T08:48:59.014Z,-6.60
2023-12-09T08:51:27.811Z,-6.60
2023-12-09T08:53:57.578Z,-8.30
2023-12-09T08:56:26.006Z,-6.50
2023-12-09T08:58:53.382Z,-6.60
2023-12-09T09:01:20.982Z,-6.60
2023-12-09T09:03:49.662Z,-6.60
2023-12-09T09:06:19.429Z,-6.60
2023-12-09T09:08:48.954Z,-6.60
2023-12-09T09:11:19.438Z,-6.50
2023-12-09T09:13:48.060Z,-6.90
2023-12-09T09:16:18.051Z,-6.60
2023-12-09T09:18:47.081Z,-6.30
2023-12-09T09:21:14.748Z,-6.50
2023-12-09T09:23:42.213Z,-6.50
2023-12-09T09:26:14.215Z,-6.50
2023-12-09T09:28:42.699Z,-6.40
2023-12-09T09:31:12.826Z,-6.40
2023-12-09T09:33:42.746Z,-6.40
2023-12-09T09:36:11.721Z,-6.40
2023-12-09T09:38:40.552Z,-6.40
2023-12-09T09:41:15.281Z,-6.40
2023-12-09T09:43:49.999Z,-6.40
2023-12-09T09:46:22.989Z,-6.50
2023-12-09T09:48:56.461Z,-6.50
2023-12-09T09:51:29.540Z,-6.40
2023-12-09T09:54:25.013Z,-6.40
2023-12-09T09:56:55.066Z,-6.50
2023-12-09T09:59:24.563Z,-6.40
2023-12-09T10:01:53.026Z,-6.40
2023-12-09T10:04:24.653Z,-6.40
2023-12-09T10:06:54.054Z,-6.40
2023-12-09T10:09:22.726Z,-6.30
2023-12-09T10:11:55.444Z,-6.30
2023-12-09T10:14:25.327Z,-6.20
2023-12-09T10:16:58.724Z,-6.20
2023-12-09T10:19:27.163Z,-6.20
2023-12-09T10:21:55.803Z,-6.20
2023-12-09T10:24:23.260Z,-6.20
2023-12-09T10:26:51.886Z,-6.30
2023-12-09T10:29:20.525Z,-6.30
2023-12-09T10:31:48.892Z,-6.40
2023-12-09T10:34:18.405Z,-6.30
2023-12-09T10:36:48.173Z,-6.10
2023-12-09T10:39:17.648Z,-6.30
2023-12-09T10:41:46.846Z,-6.30
2023-12-09T10:44:15.360Z,-6.30
2023-12-09T10:46:43.831Z,-6.30
2023-12-09T10:49:12.276Z,-6.30
2023-12-09T10:51:39.720Z,-6.30
2023-12-09T10:54:08.412Z,-6.30
2023-12-09T10:56:36.945Z,-6.30
2023-12-09T10:59:06.812Z,-6.20
2023-12-09T11:01:34.452Z,-6.30
2023-12-09T11:04:07.624Z,-6.20
2023-12-09T11:06:41.791Z,-6.20
2023-12-09T11:09:11.465Z,-6.20
2023-12-09T11:11:40.931Z,-6.20
2023-12-09T11:14:11.359Z,-6.20
2023-12-09T11:16:45.727Z,-6.20
2023-12-09T11:19:21.355Z,-6.20
2023-12-09T11:21:49.155Z,-6.10
2023-12-09T11:24:21.076Z,-6.10
2023-12-09T11:26:50.021Z,-6.10
2023-12-09T11:29:21.664Z,-6.10
2023-12-09T11:31:53.595Z,-6.10
2023-12-09T11:34:23.956Z,-6.10
2023-12-09T11:36:54.639Z,-6.10
2023-12-09T11:39:24.072Z,-6.10
2023-12-09T11:41:52.187Z,-5.90
2023-12-09T11:44:22.869Z,-6.10
2023-12-09T11:46:52.572Z,-6.10
2023-12-09T11:49:22.536Z,-6.00
2023-12-09T11:51:50.863Z,-6.00
2023-12-09T11:54:21.692Z,-6.10
2023-12-09T11:56:50.847Z,-6.00
2023-12-09T11:59:19.998Z,-6.00
2023-12-09T12:01:49.488Z,-6.00
2023-12-09T12:04:19.999Z,-5.90
2023-12-09T12:06:48.639Z,-5.90
2023-12-09T12:09:21.364Z,-5.90
2023-12-09T12:11:48.815Z,-5.90
2023-12-09T12:14:18.021Z,-5.90
2023-12-09T12:16:46.736Z,-6.00
2023-12-09T12:19:15.398Z,-4.30
2023-12-09T12:21:47.310Z,-6.00
2023-12-09T12:24:17.457Z,-6.00
2023-12-09T12:26:46.251Z,-6.00
2023-12-09T12:29:20.537Z,-6.00
2023-12-09T12:31:52.620Z,-6.10
2023-12-09T12:34:21.851Z,-6.00
2023-12-09T12:36:49.801Z,-5.30
2023-12-09T12:39:18.379Z,-5.20
2023-12-09T12:41:47.334Z,-5.90
2023-12-09T12:44:18.013Z,-6.00
2023-12-09T12:46:47.322Z,-5.90
2023-12-09T12:49:16.303Z,-5.90
2023-12-09T12:51:44.977Z,-4.40
2023-12-09T12:54:14.800Z,-5.10
2023-12-09T12:56:42.454Z,-4.30
2023-12-09T12:59:09.864Z,-6.00
2023-12-09T13:01:39.738Z,-5.10
2023-12-09T13:04:10.371Z,-5.50
2023-12-09T13:06:41.340Z,-4.60
2023-12-09T13:09:10.587Z,-3.90
2023-12-09T13:11:38.971Z,-6.00
2023-12-09T13:14:07.221Z,-6.00
2023-12-09T13:16:34.814Z,-4.10
2023-12-09T13:19:03.197Z,-5.10
2023-12-09T13:21:30.806Z,-5.50
2023-12-09T13:24:00.502Z,-6.00
2023-12-09T13:26:28.108Z,-6.00
2023-12-09T13:28:56.739Z,-6.00
2023-12-09T13:31:26.906Z,-3.40
2023-12-09T13:33:57.712Z,-6.00
2023-12-09T13:36:25.733Z,-4.50
2023-12-09T13:38:56.307Z,-7.10
2023-12-09T13:41:24.387Z,-4.30
2023-12-09T13:43:54.475Z,-5.90
2023-12-09T13:46:23.260Z,-5.90
2023-12-09T13:48:51.975Z,-3.30
2023-12-09T13:51:20.412Z,-4.80
2023-12-09T13:53:49.131Z,-5.90
2023-12-09T13:56:20.392Z,-5.90
2023-12-09T13:58:53.664Z,-4.60
2023-12-09T14:01:22.704Z,-5.90
2023-12-09T14:03:51.615Z,-5.00
2023-12-09T14:06:20.306Z,-4.30
2023-12-09T14:08:49.436Z,-5.90
2023-12-09T14:11:17.137Z,-3.90
2023-12-09T14:13:46.322Z,-4.60
2023-12-09T14:16:15.255Z,-5.80
2023-12-09T14:18:47.656Z,-5.80
2023-12-09T14:21:15.405Z,-3.00
2023-12-09T14:23:44.068Z,-5.70
2023-12-09T14:26:12.660Z,-5.70
2023-12-09T14:28:41.122Z,-5.70
2023-12-09T14:31:13.033Z,-5.70
2023-12-09T14:33:43.908Z,-5.60
2023-12-09T14:36:14.430Z,-5.60
2023-12-09T14:38:42.251Z,-5.60
2023-12-09T14:41:13.828Z,-3.20
2023-12-09T14:43:41.698Z,-5.60
2023-12-09T14:46:10.145Z,-5.60
2023-12-09T14:48:38.896Z,-3.40
2023-12-09T14:51:09.114Z,-3.40
2023-12-09T14:53:36.591Z,-5.70
2023-12-09T14:56:06.059Z,-5.60
2023-12-09T14:58:36.365Z,-5.60
2023-12-09T15:01:06.220Z,-4.30
2023-12-09T15:03:35.032Z,-4.60
2023-12-09T15:06:03.042Z,-5.60
2023-12-09T15:08:33.893Z,-5.60
2023-12-09T15:11:02.453Z,-5.50
2023-12-09T15:13:30.048Z,-5.50
2023-12-09T15:15:59.820Z,-5.50
2023-12-09T15:18:28.420Z,-4.60
2023-12-09T15:20:56.780Z,-4.80
2023-12-09T15:26:01.038Z,-5.40
2023-12-09T15:28:35.300Z,-5.40
2023-12-09T15:31:04.857Z,-5.40
2023-12-09T15:33:32.571Z,-5.30
2023-12-09T15:36:01.182Z,-4.20
2023-12-09T15:38:29.786Z,-5.30
2023-12-09T15:40:58.945Z,-5.30
2023-12-09T15:43:26.539Z,-5.30
2023-12-09T15:45:56.307Z,-3.40
2023-12-09T15:48:28.130Z,-3.80
2023-12-09T15:50:56.485Z,-3.20
2023-12-09T15:53:28.143Z,-5.30
2023-12-09T15:55:57.787Z,-5.30
2023-12-09T15:58:26.568Z,-4.00
2023-12-09T16:00:55.246Z,-5.20
2023-12-09T16:03:23.805Z,-2.80
2023-12-09T16:05:54.227Z,-5.20
2023-12-09T16:08:24.968Z,-5.20
2023-12-09T16:10:54.212Z,-4.40
2023-12-09T16:13:25.003Z,-5.20
2023-12-09T16:15:59.400Z,-5.20
2023-12-09T16:18:28.505Z,-4.60
2023-12-09T16:20:56.144Z,-3.10
2023-12-09T16:23:24.848Z,-3.90
2023-12-09T16:25:52.748Z,-3.60
2023-12-09T16:28:20.577Z,-3.60
2023-12-09T16:30:49.161Z,-5.20
2023-12-09T16:33:17.653Z,-5.20
2023-12-09T16:35:46.267Z,-4.40
2023-12-09T16:38:14.640Z,-3.70
2023-12-09T16:40:46.154Z,-5.10
2023-12-09T16:43:14.456Z,-5.10
2023-12-09T16:45:43.037Z,-4.40
2023-12-09T16:48:12.721Z,-3.70
2023-12-09T16:50:41.906Z,-5.00
2023-12-09T16:53:11.009Z,-2.90
2023-12-09T16:55:39.557Z,-4.90
2023-12-09T16:58:08.159Z,-3.90
2023-12-09T17:00:36.927Z,-4.90
2023-12-09T17:03:05.378Z,-3.80
2023-12-09T17:05:33.909Z,-3.80
2023-12-09T17:08:02.637Z,-4.20
2023-12-09T17:10:35.257Z,-3.70
2023-12-09T17:13:03.582Z,-3.90
2023-12-09T17:15:31.946Z,-3.70
2023-12-09T17:18:00.666Z,-4.10
2023-12-09T17:23:06.283Z,-2.40
2023-12-09T17:25:34.068Z,-4.00
2023-12-09T17:28:02.565Z,-4.10
2023-12-09T17:30:30.079Z,-4.10
2023-12-09T17:32:59.634Z,-2.60
2023-12-09T17:35:33.302Z,-3.50
2023-12-09T17:38:04.168Z,-2.40
2023-12-09T17:40:33.180Z,-3.80
2023-12-09T17:43:01.676Z,-3.30
2023-12-09T17:45:31.742Z,-2.50
2023-12-09T17:48:00.153Z,-3.70
2023-12-09T17:50:27.879Z,-2.60
2023-12-09T17:52:56.423Z,-3.60
2023-12-09T17:55:25.069Z,-2.70
2023-12-09T17:57:53.931Z,-2.10
2023-12-09T18:00:22.933Z,-3.10
2023-12-09T18:02:51.356Z,-2.60
2023-12-09T18:05:21.753Z,-1.90
2023-12-09T18:07:50.274Z,-2.00
2023-12-09T18:10:19.026Z,-3.10
2023-12-09T18:12:49.464Z,-3.40
2023-12-09T18:15:19.059Z,-2.40
2023-12-09T18:17:47.484Z,-3.70
2023-12-09T18:20:15.869Z,-3.10
2023-12-09T18:22:44.535Z,-3.70
2023-12-09T18:25:16.598Z,-1.90
2023-12-09T18:27:45.608Z,-2.80
2023-12-09T18:30:21.392Z,-4.60
2023-12-09T18:32:51.472Z,-3.70
2023-12-09T18:35:22.083Z,-2.50
2023-12-09T18:37:50.974Z,-2.50
2023-12-09T18:40:20.582Z,-3.60
2023-12-09T18:42:52.698Z,-3.60
2023-12-09T18:45:22.428Z,-2.90
2023-12-09T18:47:52.827Z,-3.20
2023-12-09T18:50:25.626Z,-3.10
2023-12-09T18:52:56.709Z,-2.80
2023-12-09T18:55:25.540Z,-2.20
2023-12-09T18:57:54.151Z,-2.70
2023-12-09T19:00:23.748Z,-3.20
2023-12-09T19:02:53.510Z,-2.20
2023-12-09T19:05:23.988Z,-2.60
2023-12-09T19:07:52.487Z,-2.60
2023-12-09T19:10:21.921Z,-3.20
2023-12-09T19:12:50.589Z,-2.30
2023-12-09T19:15:21.312Z,-2.90
2023-12-09T19:17:50.214Z,-3.50
2023-12-09T19:20:18.787Z,-3.30
2023-12-09T19:22:49.863Z,-2.80
2023-12-09T19:25:17.515Z,-3.50
2023-12-09T19:27:45.990Z,-3.50
2023-12-09T19:30:16.046Z,-2.20
2023-12-09T19:32:45.902Z,-3.50
2023-12-09T19:35:14.768Z,-3.00
2023-12-09T19:37:50.569Z,-3.50
2023-12-09T19:40:22.771Z,-3.40
2023-12-09T19:42:54.364Z,-2.00
2023-12-09T19:45:27.973Z,-3.00
2023-12-09T19:47:58.353Z,-1.90
2023-12-09T19:50:26.579Z,-2.10
2023-12-09T19:52:55.096Z,-2.00
2023-12-09T19:55:26.610Z,-1.90
2023-12-09T19:57:54.192Z,-2.30
2023-12-09T20:00:25.630Z,-2.50
2023-12-09T20:02:54.218Z,-3.40
2023-12-09T20:05:23.276Z,-3.40
2023-12-09T20:07:56.672Z,-2.60
2023-12-09T20:10:24.660Z,-3.40
2023-12-09T20:15:28.538Z,-2.90
2023-12-09T20:17:59.386Z,-2.40
2023-12-09T20:20:31.502Z,-1.90
2023-12-09T20:23:00.080Z,-2.30
2023-12-09T20:25:28.444Z,-2.30
2023-12-09T20:27:59.554Z,-2.60
2023-12-09T20:30:30.646Z,-3.30
2023-12-09T20:33:05.350Z,-2.20
2023-12-09T20:35:34.186Z,-2.40
2023-12-09T20:38:06.807Z,-2.70
2023-12-09T20:40:34.376Z,-2.50
2023-12-09T20:43:01.896Z,-2.90
2023-12-09T20:45:30.210Z,-2.20
2023-12-09T20:48:00.011Z,-2.10
2023-12-09T20:50:28.699Z,-2.90
2023-12-09T20:52:57.842Z,-3.30
2023-12-09T20:55:30.947Z,-2.50
2023-12-09T20:58:00.578Z,-1.70
2023-12-09T21:00:30.029Z,-2.70
2023-12-09T21:02:58.688Z,-2.50
2023-12-09T21:05:29.459Z,-3.20
2023-12-09T21:08:00.287Z,-2.20
2023-12-09T21:10:27.873Z,-3.20
2023-12-09T21:13:01.164Z,-2.10
2023-12-09T21:15:29.546Z,-1.80
2023-12-09T21:20:32.382Z,-2.60
2023-12-09T21:23:06.371Z,-2.70
2023-12-09T21:25:37.409Z,-1.30
2023-12-09T21:28:08.630Z,-2.70
2023-12-09T21:30:37.668Z,-2.40
2023-12-09T21:33:06.864Z,-3.10
2023-12-09T21:35:36.735Z,-2.70
2023-12-09T21:38:05.413Z,-2.20
2023-12-09T21:40:33.175Z,-2.40
2023-12-09T21:43:01.778Z,-3.10
2023-12-09T21:45:30.475Z,-2.00
2023-12-09T21:47:59.171Z,-2.60
2023-12-09T21:50:27.801Z,-2.60
2023-12-09T21:52:57.018Z,-3.10
2023-12-09T21:55:25.736Z,-3.10
2023-12-09T21:57:54.061Z,-2.10
2023-12-09T22:00:22.712Z,-2.60
2023-12-09T22:02:52.342Z,-3.00
2023-12-09T22:05:21.146Z,-2.20
2023-12-09T22:07:51.012Z,-1.30
2023-12-09T22:10:21.494Z,-3.00
2023-12-09T22:12:49.243Z,-2.30
2023-12-09T22:15:22.690Z,-1.40
2023-12-09T22:17:51.862Z,-2.70
2023-12-09T22:20:20.359Z,-2.40
2023-12-09T22:22:54.364Z,-2.90
2023-12-09T22:25:25.672Z,-1.70
2023-12-09T22:27:54.301Z,-2.30
2023-12-09T22:30:22.852Z,-2.00
2023-12-09T22:32:51.521Z,-1.40
2023-12-09T22:35:21.131Z,-3.00
2023-12-09T22:37:49.900Z,-2.10
2023-12-09T22:40:18.804Z,-2.20
2023-12-09T22:42:47.487Z,-3.10
2023-12-09T22:45:18.187Z,-3.00
2023-12-09T22:47:45.813Z,-3.10
2023-12-09T22:50:14.249Z,-3.10
2023-12-09T22:52:41.986Z,-1.90
2023-12-09T22:55:09.812Z,-2.30
2023-12-09T22:57:41.649Z,-3.00
2023-12-09T23:00:11.367Z,-2.10
2023-12-09T23:02:38.824Z,-3.00
2023-12-09T23:05:08.001Z,-1.90
2023-12-09T23:07:36.663Z,-3.00
2023-12-09T23:10:06.658Z,-3.20
2023-12-09T23:12:34.264Z,-3.00
2023-12-09T23:15:04.013Z,-2.80
2023-12-09T23:17:34.904Z,-1.70
2023-12-09T23:20:03.418Z,-2.80
2023-12-09T23:22:31.213Z,-2.40
2023-12-09T23:24:59.756Z,-2.40
2023-12-09T23:27:28.947Z,-2.70
2023-12-09T23:29:58.610Z,-2.90
2023-12-09T23:32:27.165Z,-3.00
2023-12-09T23:34:55.954Z,-1.80
2023-12-09T23:37:23.488Z,-1.20
2023-12-09T23:39:51.396Z,-3.00
2023-12-09T23:42:20.099Z,-2.10
2023-12-09T23:44:47.686Z,-3.00
2023-12-09T23:47:17.018Z,-2.70
2023-12-09T23:49:44.490Z,-2.30
2023-12-09T23:52:12.951Z,-2.20
2023-12-09T23:54:42.745Z,-2.70
2023-12-09T23:57:11.811Z,-1.40
2023-12-09T23:59:40.896Z,-3.30
